Timeline UpdatesTrip UpdatesNews PostsPvt Posts♥♥Travel TipsAdmin PostsConv PostsFollowed PostsChat RequestsBlog PostsPNR Posts

Disclaimer
Search
 
 
Thu Oct 23, 2014 14:57:38 ISTHomeTrainsΣChainsAtlasPNRForumGalleryNewsFAQTripsMembersLoginFeedback
No Recent News for this Train
Other Trains in the News **new
Latest...
there are good chances of tkt to be confmed upto WL 80. in non peak season. condition may be different for diwali or peak season.
Wed Feb 26, 2014 (02:31PM)
⇐ Return Journey: Train# 19020

19019/Mumbai Bandra Terminus- Dehradun Express

Time-Table HAS CHANGED.
Sep 03 2014 (9:51AM)
Change Departure Station:
Change Arrival Station:
Post a Train Travel TipPost a Train Travel Tip **new
Post a Comment/Question/Picture/VideoPost a Comment/Question/Picture/Video
Pantry/Catering
✕ NO Pantry Car
✓ Catering Avbl
Loco/Rake Reversals
SRE/Saharanpur Junction (6); LRJ/Laksar Junction (4);
RSA - Rake Sharing
Rake/Coach Composition
LOCO-SLR-S9-S8-S7-S6-S5-S4-S3-S2-S1-AB1-GEN-GEN-HCPV-SLR;;; S9,S8,S7,S6 -(BANDRA TERMINUS-HARIDWAR); Rest Coaches-(BANDRA TERMINUS-DEHRADUN) ; Entry# 571623.
Loco
GZB WAP7 - (BDTS - NZM) TKD WDP 3A -...
Read more...
(NZM - DDN).
News    PNR    Forum    Time-Table    Availability    Fare Chart    Map    Arr/Dep History    Trips    Gallery    ΣChains    X/O    Timeline    
Travel Time: 1h 58m    4 halts    Distance: 44 km    Avg Speed: 22 km/hr
Type: Mail/Express
Zone: WR/Western
Departs @ 04:35 (Avg 18m late)
Platform# 2
SMTWTFS
Faridabad/FDB 
Arrives @ 06:33 (Avg 44m late)
Platform# 1
SMTWTFS
Ghaziabad Junction/GZB 

4 halts. 11 intermediate Stations between Faridabad and Ghaziabad Junction

Show ALL intermediate Stations  Show Old Time-Table

#TrkCodeStation NameX/OArrivesAvgDepartsAvgHaltPFDay#KmSpeedElevZoneAddress
1/==/BDTSMumbai Bandra Terminus (5)  -00:05+011-1346.4374mWRMumbai 400050, Maharashtra
2/==/BVIMumbai Borivali (8)O  00:38 00:35+800:40+72 5m61-1327.75019mWRMumbai - 400092, Maharashtra
3/==/BSRVasai Road (7)O  01:03 01:01+401:05 01:03+42m31-1310.3747mWRVasai 401202, Maharashtra
4/==/PLGPalghar (3)X  01:35+1401:37+172m11-1270.75219mWRPalghar, Maharashtra
5/==/DRDDahanu Road (5)X  02:15+902:17+92m11-1237.79112mWRDahanu, Maharashtra
6/==/VAPIVapi (3)X  02:49+1102:51+112m11-1189.25427mWRVapi, Gujarat
7/==/BLValsad (3)X  03:23 03:20+503:25+102 5m11-1163.05715mWRValsad, Gujarat
8/==/BIMBilimora Junction (4)X  03:44+503:46+62m11-1145.07911mWRBilimora, Gujarat
9/==/NVSNavsari (3)X  04:02+604:04+62m11-1123.94914mWRNavsari, Gujarat
10/==/STSurat (4)X  04:40+104:45+25m11-1094.27219mWRSurat 395001, Gujarat
11/==/KSBKosamba Junction (3)05:11+1005:13+92m--1-1062.913930mWRKosamba, Gujarat
12/==/AKVAnkleshwar Junction (4)X  05:19 05:21+1605:21 05:23+162m11-1044.34319mWRAnkleshwar, Gujarat
13/==/BHBharuch Junction (5)X  05:34 05:36+1505:36 05:38+152m31-1035.08719mWRBharuch, Gujarat
14/==/MYGMiyagam Karjan (2)  06:04 06:06+1606:06 06:08+152m21-994.35629mWRKarjan, Gujarat
15/==/BRCVadodara Junction (7)XO  06:40+1806:50+1810m21-964.56736mWRVadodara 390005, Gujarat
16/==/SMLASamlaya Junction (3)  07:12 07:14+2307:14 07:16+232m21-937.86767mWRVadodara, Gujarat
17/==/CPNChampaner Road Junction  07:24 07:26+2207:26 07:28+212m21-926.65478mWRPanchmahal, Gujarat
18/==/DRLDerolX  07:40 07:42+1507:42 07:44+152m21-914.17681mWRKalol, Gujarat
19/==/KRSAKharsaliya (2)X  07:52 07:54+2207:54 07:56+212m21-901.427107mWRPanchmahal, Gujarat
20/==/GDAGodhra Junction (3)O  08:20+808:25+85m21-890.658122mWRGodhra, Gujarat
21/==/SATSant Road (2)  08:44 08:46+2508:46 08:47+262 1m21-870.265169mWROrwara, Gujarat
22/==/PPDPiplod Junction  08:56 08:58+2808:58 08:59+292 1m21-858.468209mWRPiplod, Gujarat
23/==/LMKLimkhedaXO  09:04 09:06+3209:06 09:08+342m21-850.425205mWRLimkheda, Gujarat
24/==/MAMMangal Mahudi (2)X  09:27 09:29+2309:29 09:30+232 1m21-841.897248mWRDabhada, Gujarat
25/==/DHDDahod (3)XO  09:50 09:45+2909:55 09:50+295m21-817.545313mWRDahod, Gujarat
26/==/BIOBordi (2)  10:02 10:04+2810:04 10:05+282 1m--1-806.968289mWRNational Highway 59, Gujarat
27/==/ANASAnas (2)X  10:10 10:12+2910:12 10:13+292 1m--1-798.973288mWRMadhya Pradesh 389154 ?, Madhya Pradesh
28/==/MGNMeghnagar (3)  10:23 10:25+3010:25 10:27+312m--1-784.360317mWRJhabua, Madhya Pradesh
29/==/THDRThandla Road (2)  10:33 10:35+3010:35 10:36+302 1m--1-776.464317mWRJhabua, Madhya Pradesh
30/==/PCNPanch Pipila (2)  10:47 10:49+3010:49 10:50+302 1m--1-762.452369mWRSH 39A, Madhya Pradesh
31/==/AGRAmargarh (2)  10:59 11:01+2911:01 11:02+302 1m--1-753.050410mWRSH 39A, Madhya Pradesh
32/==/BMIBamnia (2)  11:06 11:07+3111:08 11:09+312m--1-748.845392mWRBamnia, Madhya Pradesh
33/==/BOGBhairongarh (2)  11:15 11:17+3011:17 11:18+302 1m--1-742.865374mWRBhairongarh Railway Station, Madhya Pradesh
34/==/RTIRaoti (2)X  11:27 11:29+3111:29 11:30+312 1m--1-731.054409mWRState Highway 39A, Madhya Pradesh
35/==/BILDBildi (2)X  11:36 11:38+3111:38 11:39+322 1m--1-723.860422mWRMadhya Pradesh, Madhya Pradesh
36/==/MRNMorwani (2)X  11:46 11:48+3411:48 11:49+342 1m--1-714.821459mWRDantoda, Madhya Pradesh
37/==/RTMRatlam Junction (7)X  12:20+2812:40+2820m51-704.049495mWRRatlam, Madhya Pradesh
38/==/BODBangrod  12:50 12:52+3312:52 12:53+332 1m--1-694.255484mWRRatlam, Madhya Pradesh
39/==/RNHRunkhera  12:59 13:01+3413:01 13:02+342 1m--1-686.957478mWRUjjain, Madhya Pradesh
40/==/KUHKhachrod (2)X  13:11 13:13+3413:13 13:15+362m--1-676.414497mWRUjjain, Madhya Pradesh
41/==/NADNagda Junction (4)  14:15+214:25+310m11-662.657468mWRNagda, Madhya Pradesh
42/==/MEPMahidpur RoadX  14:43+614:45+72m--1-645.580493mWCRGogapur, Madhya Pradesh
43/==/LNRLuni RichhaX  14:53+914:55+92m--1-634.961471mWCRAlote, Madhya Pradesh
44/==/VMAVikramgarh Alot (2)  15:08+715:10+92m21-621.751443mWCRKota Division, Madhya Pradesh
45/==/THURThuria  15:19+815:21+82m--1-614.071430mWCRMDR 45, Madhya Pradesh
46/==/CMUChau Mahla (3)X  15:33+915:35+112m21-599.866426mWCRJhalawar, Rajasthan
47/==/SVASuwasra (2)X  15:48 15:49+1215:50+142 1m--1-584.562450mWCRSuwasra, Madhya Pradesh
48/==/SGZShamgarh (3)X  16:03+1416:08+135m--1-571.059463mWCRMandsaur, Madhya Pradesh
49/==/GOHGaroth (2)X  16:18 16:19+1316:20+142 1m21-560.272441mWCRMadhya Pradesh 458880, Madhya Pradesh
50/==/BWMBhawani Mandi (3)XO  16:39+1316:41+162m--1-537.658384mWCRBhawani Mandi, Madhya Pradesh
51/==/JHWJhalawar Road (3)  16:58+1417:00+142m--1-521.157361mWCRJhalawar City, Rajasthan
52/==/RMARamganj Mandi Junction (3)X  17:13+1117:15+162m--1-508.742358mWCRRamganj Mandi, Rajasthan
53/==/MKXMorak (2)  17:28+1317:30+142m--1-499.668337mWCRMorak, Rajasthan
54/==/DARADaraX  17:43+1617:45+172m--1-484.960354mWCRDara, Rajasthan
55/==/DKNTDakaniya Talav (2)O  18:33 18:23+1018:35 18:25+132m11-446.814278mWCRKota, Rajasthan
56/==/KOTAKota Junction (5)X  19:00 19:05+019:30 19:35+830m11-437.436256mWCRKota, Rajasthan
57|--|GQLGurla  19:39 19:44+1319:41 19:46+122m--1-432.053251mWCRSH 33, Rajasthan
58/==/KPTNKeshorai PatanXO  19:50 19:55+1219:52 19:57+122m--1-424.186243mWCRSH 33, Rajasthan
59/==/LKELakheri (3)X  20:22 20:30+2020:24 20:32+202m--1-377.051228mWCRBundi, Rajasthan
60/==/IDGIndargarh Sumerganj Mandi (2)XO  20:38 20:45+1920:40 20:47+202m--1-366.053247mWCRIndargarh, Rajasthan
61/==/SWMSawai Madhopur Junction (4)  21:10 21:28+1621:15 21:30+185 2m--1-329.879266mWCRSawai Madhopur, Rajasthan
62/==/MLZMalarnaO  21:43 21:53+2021:45 21:55+202m--1-299.645236mWCRSawai Madhopur, Rajasthan
63/==/GGCGangapur City (3)  22:35 22:40+1222:40 22:45+175m21-265.889270mWCRGangapur, Rajasthan
64/==/SMBJShri Mahabirji (3)  23:10 23:08+2723:12 23:10+272m--1-231.847240mWCRKarauli, Rajasthan
65/==/HANHindaun City (2)O  23:23+2523:25+292m--1-221.644230mWCRKarauli, Rajasthan
66/==/BXNBayana Junction (3)X  00:10+1900:15+235m--2-188.757198mWCRBayana, Rajasthan
67/==/BTEBharatpur Junction (5)X  00:55 00:59+1301:00+325 1m--2-146.725174mWCRBharatpur, Rajasthan
68/==/MTJMathura Junction (10)  02:20+602:25+115m32-113.275179mNCRMathura, Uttar Pradesh
69/==/KSVKosi Kalan (3)  02:58+1503:00+152m12-71.748189mNCRKosi Kalan, Uttar Pradesh
70/==/PWLPalwal (8)O  03:53+403:55+92m--2-29.262200mNRPalwal, Haryana
71/==/ASTAsaoti (5)  04:08 04:06+1304:10 04:08+132m32-18.059203mNRAsaoti, Haryana
72/==/BVHBallabgarh (5)  04:20 04:18+1704:22 04:20+172m32-8.137203mNRFaridabad, Haryana
73/==/FDBFaridabad (4)»O  04:33+1804:35+182m220.039206mNRold Faridabad, Haryana
74/==/TKDTuglakabad (2)  04:47 04:52+1904:49 04:54+202m2211.145213mNRNear Tughlakabad Metro Station, Delhi NCT
75/==/OKAOkhla (4)O  05:06 05:02+2105:08 05:04+212m--217.114221mNRIshwar Nagar Mathura Road, Delhi NCT
76/==/NZMDelhi Hazrat Nizamuddin (7)XO05:25 05:20+2005:50+2025 30m1220.842209mNRNew Delhi 110013, Delhi NCT
77/==/SBBSahibabad Junction (5)X  06:11 06:13+4506:13 06:15+482m--236.822209mNRGhaziabad, Uttar Pradesh
78/==/GZBGhaziabad Junction (6)•  06:33+4406:35+452m1243.559217mNRGhaziabad, Uttar Pradesh
79%==%GZNNew Ghaziabad (2)  06:41-06:43-2m--249.470213mNRGhaziabad, Uttar Pradesh
80%==%MUDMuradnagar (2)  06:53+5606:55+1:042m--261.267220mNRGhaziabad, Uttar Pradesh
81%==%MDNRModinagar (2)X  07:04+1:1007:06+1:112m--271.349221mNRGhaziabad, Uttar Pradesh
82%==%MTCMeerut City Junction (6)XO  07:25 07:30+1:0708:30 08:43+4265 73m4290.852229mNRMeerut, Uttar Pradesh
83%--%MUTMeerut Cantt. (2)  08:38 08:48+4708:40 08:50+512m--295.125230mNRMeerut, Uttar Pradesh
84%--%PQYPabli Khas (1) new halt!!X  09:01+5009:03+532m--299.733229mNRMeerut, Uttar Pradesh
85%--%DRLADaurala (1) new halt!!X  09:15+4709:17+502m--2106.257232mNRMeerut, Uttar Pradesh
86%--%KATKhatauli (2)  09:58 09:36+4110:00 09:38+422m12124.234239mNRKhatauli, Uttar Pradesh
87%--%JDWJarauda Nara (1) new halt!!X  10:09+3110:10+361m--2141.614245mNRMuzaffarNagar, Uttar Pradesh
88%--%MOZMuzaffarnagar (3)X  10:35 10:30+2710:37 10:32+312m22146.333247mNRMuzaffarNagar, Uttar Pradesh
89%--%BMHRBamanheri (2) new halt!!X  10:41+2810:43+282m--2151.350249mNRMuzaffarnagar, Uttar Pradesh
90%--%DBDDeoband (2)X  11:13 11:06+2011:15 11:08+212m--2170.431258mNRSaharanpur, Uttar Pradesh
91/--/SRESaharanpur Junction (6)XO12:10 12:15+712:45+335 30m52204.677276mNRSaharanpur, Uttar Pradesh
92/==/RKRoorkee (3)  13:15 13:12+2113:17+202 5m12239.338264mNRRoorkee - 247667, Uttarakhand
93/==/LRJLaksar Junction (4)X13:45+1614:10+2725m--2257.169238mNRLaksar, Uttarakhand
94%--%JWPJwalapur  14:30+5314:32+592m12280.013292mNRHaridwar, Uttarakhand
95%--%HWHaridwar Junction (9)X  14:50+4315:15 15:20+4025 30m12284.027294mNRHaridwar, Uttarakhand
96|--|MOTCMotichur (2)  15:25 15:30+4615:27 15:32+502m12288.536312mNRHaridwar, Uttarakhand
97%--%RWLRaiwala Junction (2)  15:48 15:43+4915:50 15:45+522m12295.227361mNRRishikesh, Uttarakhand
98%--%DWODoiwala  16:33 16:31+3616:35 16:33+412m12315.819484mNRDehradun, Uttarakhand
99%--%DDNDehradun (4)  17:35+11-32335.7-648mNRDehradun, Uttarakhand
Scroll to Top
Scroll to Bottom